sensor_id;sensor_type;location;lat;lon;timestamp;temperature;humidity
18297;DHT22;18066;52.106;5.534;2023-05-10T00:00:31;14.80;99.90
18297;DHT22;18066;52.106;5.534;2023-05-10T00:02:58;14.80;99.90
18297;DHT22;18066;52.106;5.534;2023-05-10T00:05:25;14.90;99.90
18297;DHT22;18066;52.106;5.534;2023-05-10T00:07:52;14.90;99.90
18297;DHT22;18066;52.106;5.534;2023-05-10T00:10:18;14.80;99.90
18297;DHT22;18066;52.106;5.534;2023-05-10T00:12:47;14.70;99.90
18297;DHT22;18066;52.106;5.534;2023-05-10T00:15:13;14.80;99.90
18297;DHT22;18066;52.106;5.534;2023-05-10T00:17:40;14.70;99.90
18297;DHT22;18066;52.106;5.534;2023-05-10T00:20:08;14.80;99.90
18297;DHT22;18066;52.106;5.534;2023-05-10T00:22:35;14.80;99.90
18297;DHT22;18066;52.106;5.534;2023-05-10T00:25:02;14.80;99.90
18297;DHT22;18066;52.106;5.534;2023-05-10T00:27:29;14.80;99.90
18297;DHT22;18066;52.106;5.534;2023-05-10T00:29:57;14.80;99.90
18297;DHT22;18066;52.106;5.534;2023-05-10T00:32:24;14.80;99.90
18297;DHT22;18066;52.106;5.534;2023-05-10T00:34:50;14.80;99.90
18297;DHT22;18066;52.106;5.534;2023-05-10T00:37:17;14.80;99.90
18297;DHT22;18066;52.106;5.534;2023-05-10T00:39:44;14.80;99.90
18297;DHT22;18066;52.106;5.534;2023-05-10T00:42:11;14.80;99.90
18297;DHT22;18066;52.106;5.534;2023-05-10T00:44:38;14.70;99.90
18297;DHT22;18066;52.106;5.534;2023-05-10T00:47:06;14.60;99.90
18297;DHT22;18066;52.106;5.534;2023-05-10T00:49:34;14.50;99.90
18297;DHT22;18066;52.106;5.534;2023-05-10T00:52:01;14.30;99.90
18297;DHT22;18066;52.106;5.534;2023-05-10T00:54:28;14.20;99.90
18297;DHT22;18066;52.106;5.534;2023-05-10T00:56:55;14.10;99.90
18297;DHT22;18066;52.106;5.534;2023-05-10T00:59:23;14.10;99.90
18297;DHT22;18066;52.106;5.534;2023-05-10T01:01:50;14.10;99.90
18297;DHT22;18066;52.106;5.534;2023-05-10T01:04:18;14.10;99.90
18297;DHT22;18066;52.106;5.534;2023-05-10T01:06:51;14.00;99.90
18297;DHT22;18066;52.106;5.534;2023-05-10T01:09:19;14.00;99.90
18297;DHT22;18066;52.106;5.534;2023-05-10T01:11:46;13.90;99.90
18297;DHT22;18066;52.106;5.534;2023-05-10T01:14:14;13.90;99.90
18297;DHT22;18066;52.106;5.534;2023-05-10T01:16:42;13.80;99.90
18297;DHT22;18066;52.106;5.534;2023-05-10T01:19:12;13.90;99.90
18297;DHT22;18066;52.106;5.534;2023-05-10T01:21:49;13.80;99.90
18297;DHT22;18066;52.106;5.534;2023-05-10T01:24:40;13.70;99.90
18297;DHT22;18066;52.106;5.534;2023-05-10T01:27:30;13.70;99.90
18297;DHT22;18066;52.106;5.534;2023-05-10T01:30:14;13.70;99.90
18297;DHT22;18066;52.106;5.534;2023-05-10T01:32:53;13.60;99.90
18297;DHT22;18066;52.106;5.534;2023-05-10T01:35:32;13.70;99.90
18297;DHT22;18066;52.106;5.534;2023-05-10T01:38:11;13.70;99.90
18297;DHT22;18066;52.106;5.534;2023-05-10T01:40:45;13.70;99.90
18297;DHT22;18066;52.106;5.534;2023-05-10T01:43:19;13.70;99.90
18297;DHT22;18066;52.106;5.534;2023-05-10T01:45:54;13.70;99.90
18297;DHT22;18066;52.106;5.534;2023-05-10T01:48:25;13.70;99.90
18297;DHT22;18066;52.106;5.534;2023-05-10T01:50:54;13.70;99.90
18297;DHT22;18066;52.106;5.534;2023-05-10T01:53:22;13.70;99.90
18297;DHT22;18066;52.106;5.534;2023-05-10T01:55:52;13.70;99.90
18297;DHT22;18066;52.106;5.534;2023-05-10T01:58:23;13.70;99.90
18297;DHT22;18066;52.106;5.534;2023-05-10T02:00:52;13.60;99.90
18297;DHT22;18066;52.106;5.534;2023-05-10T02:03:22;13.60;99.90
18297;DHT22;18066;52.106;5.534;2023-05-10T02:05:52;13.70;99.90
18297;DHT22;18066;52.106;5.534;2023-05-10T02:08:21;13.70;99.90
18297;DHT22;18066;52.106;5.534;2023-05-10T02:10:50;13.60;99.90
18297;DHT22;18066;52.106;5.534;2023-05-10T02:13:18;13.70;99.90
18297;DHT22;18066;52.106;5.534;2023-05-10T02:15:47;13.70;99.90
18297;DHT22;18066;52.106;5.534;2023-05-10T02:18:15;13.70;99.90
18297;DHT22;18066;52.106;5.534;2023-05-10T02:20:43;13.70;99.90
18297;DHT22;18066;52.106;5.534;2023-05-10T02:23:12;13.70;99.90
18297;DHT22;18066;52.106;5.534;2023-05-10T02:25:40;13.70;99.90
18297;DHT22;18066;52.106;5.534;2023-05-10T02:28:08;13.70;99.90
18297;DHT22;18066;52.106;5.534;2023-05-10T02:30:35;13.70;99.90
18297;DHT22;18066;52.106;5.534;2023-05-10T02:33:04;13.70;99.90
18297;DHT22;18066;52.106;5.534;2023-05-10T02:35:32;13.70;99.90
18297;DHT22;18066;52.106;5.534;2023-05-10T02:38:00;13.80;99.90
18297;DHT22;18066;52.106;5.534;2023-05-10T02:40:29;13.70;99.90
18297;DHT22;18066;52.106;5.534;2023-05-10T02:42:57;13.60;99.90
18297;DHT22;18066;52.106;5.534;2023-05-10T02:45:27;13.70;99.90
18297;DHT22;18066;52.106;5.534;2023-05-10T02:47:56;13.60;99.90
18297;DHT22;18066;52.106;5.534;2023-05-10T02:50:27;13.60;99.90
18297;DHT22;18066;52.106;5.534;2023-05-10T02:52:59;13.50;99.90
18297;DHT22;18066;52.106;5.534;2023-05-10T02:55:35;13.50;99.90
18297;DHT22;18066;52.106;5.534;2023-05-10T02:58:03;13.50;99.90
18297;DHT22;18066;52.106;5.534;2023-05-10T03:00:31;13.40;99.90
18297;DHT22;18066;52.106;5.534;2023-05-10T03:02:58;13.40;99.90
18297;DHT22;18066;52.106;5.534;2023-05-10T03:05:25;13.30;99.90
18297;DHT22;18066;52.106;5.534;2023-05-10T03:07:52;13.30;99.90
18297;DHT22;18066;52.106;5.534;2023-05-10T03:10:21;13.30;99.90
18297;DHT22;18066;52.106;5.534;2023-05-10T03:13:10;13.20;99.90
18297;DHT22;18066;52.106;5.534;2023-05-10T03:15:47;13.20;99.90
18297;DHT22;18066;52.106;5.534;2023-05-10T03:18:22;13.20;99.90
18297;DHT22;18066;52.106;5.534;2023-05-10T03:20:50;13.10;99.90
18297;DHT22;18066;52.106;5.534;2023-05-10T03:23:22;13.10;99.90
18297;DHT22;18066;52.106;5.534;2023-05-10T03:25:53;13.10;99.90
18297;DHT22;18066;52.106;5.534;2023-05-10T03:28:25;13.10;99.90
18297;DHT22;18066;52.106;5.534;2023-05-10T03:30:52;13.10;99.90
18297;DHT22;18066;52.106;5.534;2023-05-10T03:33:20;13.00;99.90
18297;DHT22;18066;52.106;5.534;2023-05-10T03:35:47;12.90;99.90
18297;DHT22;18066;52.106;5.534;2023-05-10T03:38:13;12.90;99.90
18297;DHT22;18066;52.106;5.534;2023-05-10T03:40:40;12.80;99.90
18297;DHT22;18066;52.106;5.534;2023-05-10T03:43:07;12.80;99.90
18297;DHT22;18066;52.106;5.534;2023-05-10T03:45:35;12.70;99.90
18297;DHT22;18066;52.106;5.534;2023-05-10T03:48:02;12.70;99.90
18297;DHT22;18066;52.106;5.534;2023-05-10T03:50:29;12.70;99.90
18297;DHT22;18066;52.106;5.534;2023-05-10T03:52:56;12.70;99.90
18297;DHT22;18066;52.106;5.534;2023-05-10T03:55:23;12.70;99.90
18297;DHT22;18066;52.106;5.534;2023-05-10T03:57:50;12.70;99.90
18297;DHT22;18066;52.106;5.534;2023-05-10T04:00:19;12.70;99.90
18297;DHT22;18066;52.106;5.534;2023-05-10T04:02:47;12.70;99.90
18297;DHT22;18066;52.106;5.534;2023-05-10T04:05:14;12.80;99.90
18297;DHT22;18066;52.106;5.534;2023-05-10T04:07:41;12.80;99.90
18297;DHT22;18066;52.106;5.534;2023-05-10T04:10:09;12.90;99.90
18297;DHT22;18066;52.106;5.534;2023-05-10T04:12:36;12.80;99.90
18297;DHT22;18066;52.106;5.534;2023-05-10T04:15:04;12.90;99.90
18297;DHT22;18066;52.106;5.534;2023-05-10T04:17:31;12.80;99.90
18297;DHT22;18066;52.106;5.534;2023-05-10T04:20:00;12.80;99.90
18297;DHT22;18066;52.106;5.534;2023-05-10T04:22:27;12.80;99.90
18297;DHT22;18066;52.106;5.534;2023-05-10T04:24:54;12.80;99.90
18297;DHT22;18066;52.106;5.534;2023-05-10T04:27:21;12.90;99.90
18297;DHT22;18066;52.106;5.534;2023-05-10T04:29:48;12.90;99.90
18297;DHT22;18066;52.106;5.534;2023-05-10T04:32:15;12.90;99.90
18297;DHT22;18066;52.106;5.534;2023-05-10T04:34:43;12.90;99.90
18297;DHT22;18066;52.106;5.534;2023-05-10T04:37:11;13.00;99.90
18297;DHT22;18066;52.106;5.534;2023-05-10T04:39:38;13.00;99.90
18297;DHT22;18066;52.106;5.534;2023-05-10T04:42:05;13.00;99.90
18297;DHT22;18066;52.106;5.534;2023-05-10T04:44:32;13.00;99.90
18297;DHT22;18066;52.106;5.534;2023-05-10T04:47:00;13.00;99.90
18297;DHT22;18066;52.106;5.534;2023-05-10T04:49:27;13.00;99.90
18297;DHT22;18066;52.106;5.534;2023-05-10T04:51:55;13.10;99.90
18297;DHT22;18066;52.106;5.534;2023-05-10T04:54:23;13.10;99.90
18297;DHT22;18066;52.106;5.534;2023-05-10T04:56:50;13.20;99.90
18297;DHT22;18066;52.106;5.534;2023-05-10T04:59:17;13.20;99.90
18297;DHT22;18066;52.106;5.534;2023-05-10T05:01:43;13.10;99.90
18297;DHT22;18066;52.106;5.534;2023-05-10T05:04:10;13.20;99.90
18297;DHT22;18066;52.106;5.534;2023-05-10T05:06:37;13.10;99.90
18297;DHT22;18066;52.106;5.534;2023-05-10T05:09:04;13.20;99.90
18297;DHT22;18066;52.106;5.534;2023-05-10T05:11:32;13.20;99.90
18297;DHT22;18066;52.106;5.534;2023-05-10T05:13:59;13.10;99.90
18297;DHT22;18066;52.106;5.534;2023-05-10T05:16:26;13.10;99.90
18297;DHT22;18066;52.106;5.534;2023-05-10T05:18:53;13.10;99.90
18297;DHT22;18066;52.106;5.534;2023-05-10T05:21:20;13.10;99.90
18297;DHT22;18066;52.106;5.534;2023-05-10T05:23:47;13.20;99.90
18297;DHT22;18066;52.106;5.534;2023-05-10T05:26:14;13.30;99.90
18297;DHT22;18066;52.106;5.534;2023-05-10T05:28:43;13.20;99.90
18297;DHT22;18066;52.106;5.534;2023-05-10T05:31:09;13.20;99.90
18297;DHT22;18066;52.106;5.534;2023-05-10T05:33:36;13.20;99.90
18297;DHT22;18066;52.106;5.534;2023-05-10T05:36:05;13.30;99.90
18297;DHT22;18066;52.106;5.534;2023-05-10T05:38:32;13.20;99.90
18297;DHT22;18066;52.106;5.534;2023-05-10T05:40:59;13.30;99.90
18297;DHT22;18066;52.106;5.534;2023-05-10T05:43:25;13.20;99.90
18297;DHT22;18066;52.106;5.534;2023-05-10T05:45:54;13.20;99.90
18297;DHT22;18066;52.106;5.534;2023-05-10T05:48:23;13.10;99.90
18297;DHT22;18066;52.106;5.534;2023-05-10T05:50:50;13.30;99.90
18297;DHT22;18066;52.106;5.534;2023-05-10T05:53:16;13.20;99.90
18297;DHT22;18066;52.106;5.534;2023-05-10T05:55:51;13.10;99.90
18297;DHT22;18066;52.106;5.534;2023-05-10T05:58:19;13.20;99.90
18297;DHT22;18066;52.106;5.534;2023-05-10T06:00:45;13.20;99.90
18297;DHT22;18066;52.106;5.534;2023-05-10T06:03:14;13.20;99.90
18297;DHT22;18066;52.106;5.534;2023-05-10T06:05:40;13.10;99.90
18297;DHT22;18066;52.106;5.534;2023-05-10T06:08:07;13.10;99.90
18297;DHT22;18066;52.106;5.534;2023-05-10T06:10:34;13.10;99.90
18297;DHT22;18066;52.106;5.534;2023-05-10T06:13:01;13.20;99.90
18297;DHT22;18066;52.106;5.534;2023-05-10T06:15:28;13.10;99.90
18297;DHT22;18066;52.106;5.534;2023-05-10T06:17:55;13.10;99.90
18297;DHT22;18066;52.106;5.534;2023-05-10T06:20:23;13.10;99.90
18297;DHT22;18066;52.106;5.534;2023-05-10T06:22:50;13.10;99.90
18297;DHT22;18066;52.106;5.534;2023-05-10T06:25:17;13.20;99.90
18297;DHT22;18066;52.106;5.534;2023-05-10T06:27:44;13.10;99.90
18297;DHT22;18066;52.106;5.534;2023-05-10T06:30:12;13.10;99.90
18297;DHT22;18066;52.106;5.534;2023-05-10T06:32:40;13.10;99.90
18297;DHT22;18066;52.106;5.534;2023-05-10T06:35:09;13.10;99.90
18297;DHT22;18066;52.106;5.534;2023-05-10T06:37:37;13.00;99.90
18297;DHT22;18066;52.106;5.534;2023-05-10T06:40:06;13.00;99.90
18297;DHT22;18066;52.106;5.534;2023-05-10T06:42:33;13.00;99.90
18297;DHT22;18066;52.106;5.534;2023-05-10T06:45:00;13.00;99.90
18297;DHT22;18066;52.106;5.534;2023-05-10T06:47:26;13.00;99.90
18297;DHT22;18066;52.106;5.534;2023-05-10T06:49:53;13.10;99.90
18297;DHT22;18066;52.106;5.534;2023-05-10T06:52:21;13.20;99.90
18297;DHT22;18066;52.106;5.534;2023-05-10T06:54:49;13.30;99.90
18297;DHT22;18066;52.106;5.534;2023-05-10T06:57:17;13.30;99.90
18297;DHT22;18066;52.106;5.534;2023-05-10T06:59:44;13.20;99.90
18297;DHT22;18066;52.106;5.534;2023-05-10T07:02:10;13.40;99.90
18297;DHT22;18066;52.106;5.534;2023-05-10T07:04:37;13.30;99.90
18297;DHT22;18066;52.106;5.534;2023-05-10T07:07:04;13.30;99.90
18297;DHT22;18066;52.106;5.534;2023-05-10T07:09:31;13.30;99.90
18297;DHT22;18066;52.106;5.534;2023-05-10T07:11:59;13.40;99.90
18297;DHT22;18066;52.106;5.534;2023-05-10T07:14:27;13.40;99.90
18297;DHT22;18066;52.106;5.534;2023-05-10T07:16:54;13.50;99.90
18297;DHT22;18066;52.106;5.534;2023-05-10T07:19:21;13.50;99.90
18297;DHT22;18066;52.106;5.534;2023-05-10T07:21:47;13.50;99.90
18297;DHT22;18066;52.106;5.534;2023-05-10T07:24:14;13.50;99.90
18297;DHT22;18066;52.106;5.534;2023-05-10T07:26:41;13.50;99.90
18297;DHT22;18066;52.106;5.534;2023-05-10T07:29:09;13.30;99.90
18297;DHT22;18066;52.106;5.534;2023-05-10T07:31:36;13.30;99.90
18297;DHT22;18066;52.106;5.534;2023-05-10T07:34:03;13.30;99.90
18297;DHT22;18066;52.106;5.534;2023-05-10T07:36:30;13.40;99.90
18297;DHT22;18066;52.106;5.534;2023-05-10T07:38:57;13.40;99.90
18297;DHT22;18066;52.106;5.534;2023-05-10T07:41:24;13.40;99.90
18297;DHT22;18066;52.106;5.534;2023-05-10T07:43:51;13.40;99.90
18297;DHT22;18066;52.106;5.534;2023-05-10T07:46:19;13.50;99.90
18297;DHT22;18066;52.106;5.534;2023-05-10T07:48:46;13.50;99.90
18297;DHT22;18066;52.106;5.534;2023-05-10T07:51:13;13.60;99.90
18297;DHT22;18066;52.106;5.534;2023-05-10T07:53:39;13.80;99.90
18297;DHT22;18066;52.106;5.534;2023-05-10T07:56:21;13.80;99.90
18297;DHT22;18066;52.106;5.534;2023-05-10T07:58:48;13.80;99.90
18297;DHT22;18066;52.106;5.534;2023-05-10T08:01:14;13.70;99.90
18297;DHT22;18066;52.106;5.534;2023-05-10T08:03:43;13.80;99.90
18297;DHT22;18066;52.106;5.534;2023-05-10T08:06:09;13.80;99.90
18297;DHT22;18066;52.106;5.534;2023-05-10T08:08:36;13.70;99.90
18297;DHT22;18066;52.106;5.534;2023-05-10T08:11:03;13.80;99.90
18297;DHT22;18066;52.106;5.534;2023-05-10T08:13:30;13.80;99.90
18297;DHT22;18066;52.106;5.534;2023-05-10T08:15:58;14.00;99.90
18297;DHT22;18066;52.106;5.534;2023-05-10T08:18:25;14.10;99.90
18297;DHT22;18066;52.106;5.534;2023-05-10T08:20:53;14.20;99.90
18297;DHT22;18066;52.106;5.534;2023-05-10T08:23:20;14.20;99.90
18297;DHT22;18066;52.106;5.534;2023-05-10T08:25:47;14.50;99.90
18297;DHT22;18066;52.106;5.534;2023-05-10T08:28:14;14.90;99.90
18297;DHT22;18066;52.106;5.534;2023-05-10T08:30:40;15.30;99.90
18297;DHT22;18066;52.106;5.534;2023-05-10T08:33:07;15.50;99.90
18297;DHT22;18066;52.106;5.534;2023-05-10T08:35:34;15.50;99.90
18297;DHT22;18066;52.106;5.534;2023-05-10T08:38:02;15.50;99.90
18297;DHT22;18066;52.106;5.534;2023-05-10T08:40:29;15.30;99.90
18297;DHT22;18066;52.106;5.534;2023-05-10T08:43:04;15.10;99.90
18297;DHT22;18066;52.106;5.534;2023-05-10T08:45:33;14.90;99.90
18297;DHT22;18066;52.106;5.534;2023-05-10T08:48:02;14.60;99.90
18297;DHT22;18066;52.106;5.534;2023-05-10T08:50:31;14.50;99.90
18297;DHT22;18066;52.106;5.534;2023-05-10T08:53:02;14.40;99.90
18297;DHT22;18066;52.106;5.534;2023-05-10T08:55:31;14.20;99.90
18297;DHT22;18066;52.106;5.534;2023-05-10T08:57:59;14.20;99.90
18297;DHT22;18066;52.106;5.534;2023-05-10T09:00:26;14.10;99.90
18297;DHT22;18066;52.106;5.534;2023-05-10T09:02:53;14.00;99.90
18297;DHT22;18066;52.106;5.534;2023-05-10T09:05:20;14.00;99.90
18297;DHT22;18066;52.106;5.534;2023-05-10T09:07:47;14.10;99.90
18297;DHT22;18066;52.106;5.534;2023-05-10T09:10:16;14.10;99.90
18297;DHT22;18066;52.106;5.534;2023-05-10T09:12:44;14.10;99.90
18297;DHT22;18066;52.106;5.534;2023-05-10T09:15:12;14.30;99.90
18297;DHT22;18066;52.106;5.534;2023-05-10T09:17:42;14.40;99.90
18297;DHT22;18066;52.106;5.534;2023-05-10T09:20:10;14.50;99.90
18297;DHT22;18066;52.106;5.534;2023-05-10T09:22:37;14.50;99.90
18297;DHT22;18066;52.106;5.534;2023-05-10T09:25:06;14.40;99.90
18297;DHT22;18066;52.106;5.534;2023-05-10T09:27:34;14.50;99.90
18297;DHT22;18066;52.106;5.534;2023-05-10T09:30:02;14.70;99.90
18297;DHT22;18066;52.106;5.534;2023-05-10T09:32:39;15.00;99.90
18297;DHT22;18066;52.106;5.534;2023-05-10T09:35:07;15.40;99.90
18297;DHT22;18066;52.106;5.534;2023-05-10T09:37:34;15.50;99.90
18297;DHT22;18066;52.106;5.534;2023-05-10T09:40:05;15.60;99.90
18297;DHT22;18066;52.106;5.534;2023-05-10T09:42:34;15.70;99.90
18297;DHT22;18066;52.106;5.534;2023-05-10T09:45:03;15.70;99.90
18297;DHT22;18066;52.106;5.534;2023-05-10T09:47:32;15.80;99.90
18297;DHT22;18066;52.106;5.534;2023-05-10T09:49:59;15.80;99.90
18297;DHT22;18066;52.106;5.534;2023-05-10T09:52:28;15.80;99.90
18297;DHT22;18066;52.106;5.534;2023-05-10T09:54:55;15.80;99.90
18297;DHT22;18066;52.106;5.534;2023-05-10T09:57:23;15.90;99.90
18297;DHT22;18066;52.106;5.534;2023-05-10T09:59:52;16.30;99.90
18297;DHT22;18066;52.106;5.534;2023-05-10T10:02:20;16.50;99.90
18297;DHT22;18066;52.106;5.534;2023-05-10T10:04:49;16.60;99.90
18297;DHT22;18066;52.106;5.534;2023-05-10T10:07:22;16.60;99.90
18297;DHT22;18066;52.106;5.534;2023-05-10T10:09:51;16.80;99.90
18297;DHT22;18066;52.106;5.534;2023-05-10T10:12:18;17.00;99.90
18297;DHT22;18066;52.106;5.534;2023-05-10T10:14:46;17.10;99.90
18297;DHT22;18066;52.106;5.534;2023-05-10T10:17:15;17.20;99.90
18297;DHT22;18066;52.106;5.534;2023-05-10T10:19:42;17.30;99.90
18297;DHT22;18066;52.106;5.534;2023-05-10T10:22:09;17.30;99.90
18297;DHT22;18066;52.106;5.534;2023-05-10T10:24:37;17.20;99.90
18297;DHT22;18066;52.106;5.534;2023-05-10T10:27:15;16.90;99.90
18297;DHT22;18066;52.106;5.534;2023-05-10T10:29:52;16.90;99.90
18297;DHT22;18066;52.106;5.534;2023-05-10T10:32:28;16.80;99.90
18297;DHT22;18066;52.106;5.534;2023-05-10T10:34:57;16.70;99.90
18297;DHT22;18066;52.106;5.534;2023-05-10T10:37:24;16.30;99.90
18297;DHT22;18066;52.106;5.534;2023-05-10T10:40:22;16.10;99.90
18297;DHT22;18066;52.106;5.534;2023-05-10T10:42:49;16.20;99.90
18297;DHT22;18066;52.106;5.534;2023-05-10T10:45:16;16.20;99.90
18297;DHT22;18066;52.106;5.534;2023-05-10T10:47:44;16.20;99.90
18297;DHT22;18066;52.106;5.534;2023-05-10T10:50:11;16.30;99.90
18297;DHT22;18066;52.106;5.534;2023-05-10T10:52:39;16.50;99.90
18297;DHT22;18066;52.106;5.534;2023-05-10T10:55:08;16.40;99.90
18297;DHT22;18066;52.106;5.534;2023-05-10T10:57:44;16.20;99.90
18297;DHT22;18066;52.106;5.534;2023-05-10T11:00:22;15.80;99.90
18297;DHT22;18066;52.106;5.534;2023-05-10T11:02:52;15.70;99.90
18297;DHT22;18066;52.106;5.534;2023-05-10T11:05:35;15.80;99.90
18297;DHT22;18066;52.106;5.534;2023-05-10T11:08:08;16.00;99.90
18297;DHT22;18066;52.106;5.534;2023-05-10T11:10:35;16.10;99.90
18297;DHT22;18066;52.106;5.534;2023-05-10T11:13:03;16.00;99.90
18297;DHT22;18066;52.106;5.534;2023-05-10T11:15:31;15.90;99.90
18297;DHT22;18066;52.106;5.534;2023-05-10T11:18:00;16.00;99.90
18297;DHT22;18066;52.106;5.534;2023-05-10T11:20:42;15.90;99.90
18297;DHT22;18066;52.106;5.534;2023-05-10T11:23:13;16.00;99.90
18297;DHT22;18066;52.106;5.534;2023-05-10T11:25:42;16.20;99.90
18297;DHT22;18066;52.106;5.534;2023-05-10T11:28:09;16.40;99.90
18297;DHT22;18066;52.106;5.534;2023-05-10T11:30:38;16.60;99.90
18297;DHT22;18066;52.106;5.534;2023-05-10T11:33:06;16.70;99.90
18297;DHT22;18066;52.106;5.534;2023-05-10T11:35:37;16.60;99.90
18297;DHT22;18066;52.106;5.534;2023-05-10T11:38:06;16.60;99.90
18297;DHT22;18066;52.106;5.534;2023-05-10T11:40:33;16.50;99.90
18297;DHT22;18066;52.106;5.534;2023-05-10T11:43:00;16.60;99.90
18297;DHT22;18066;52.106;5.534;2023-05-10T11:45:27;16.50;99.90
18297;DHT22;18066;52.106;5.534;2023-05-10T11:47:54;16.50;99.90
18297;DHT22;18066;52.106;5.534;2023-05-10T11:50:23;16.60;99.90
18297;DHT22;18066;52.106;5.534;2023-05-10T11:52:51;16.60;99.90
18297;DHT22;18066;52.106;5.534;2023-05-10T11:55:18;16.70;99.90
18297;DHT22;18066;52.106;5.534;2023-05-10T11:57:45;16.80;99.90
18297;DHT22;18066;52.106;5.534;2023-05-10T12:00:13;16.90;99.90
18297;DHT22;18066;52.106;5.534;2023-05-10T12:02:40;16.90;99.90
18297;DHT22;18066;52.106;5.534;2023-05-10T12:05:07;16.90;99.90
18297;DHT22;18066;52.106;5.534;2023-05-10T12:07:36;17.20;99.90
18297;DHT22;18066;52.106;5.534;2023-05-10T12:10:06;17.60;99.90
18297;DHT22;18066;52.106;5.534;2023-05-10T12:12:37;17.80;99.90
18297;DHT22;18066;52.106;5.534;2023-05-10T12:15:05;17.80;99.90
18297;DHT22;18066;52.106;5.534;2023-05-10T12:17:37;17.80;99.90
18297;DHT22;18066;52.106;5.534;2023-05-10T12:20:18;17.60;99.90
18297;DHT22;18066;52.106;5.534;2023-05-10T12:22:49;17.70;99.90
18297;DHT22;18066;52.106;5.534;2023-05-10T12:25:17;17.60;99.90
18297;DHT22;18066;52.106;5.534;2023-05-10T12:27:54;17.60;99.90
18297;DHT22;18066;52.106;5.534;2023-05-10T12:30:22;17.80;99.90
18297;DHT22;18066;52.106;5.534;2023-05-10T12:32:49;17.70;99.90
18297;DHT22;18066;52.106;5.534;2023-05-10T12:35:16;17.90;99.90
18297;DHT22;18066;52.106;5.534;2023-05-10T12:37:47;17.70;99.90
18297;DHT22;18066;52.106;5.534;2023-05-10T12:40:14;17.80;99.90
18297;DHT22;18066;52.106;5.534;2023-05-10T12:42:41;18.10;99.90
18297;DHT22;18066;52.106;5.534;2023-05-10T12:45:10;18.40;99.90
18297;DHT22;18066;52.106;5.534;2023-05-10T12:47:38;18.70;99.90
18297;DHT22;18066;52.106;5.534;2023-05-10T12:50:05;19.10;99.90
18297;DHT22;18066;52.106;5.534;2023-05-10T12:52:32;19.10;99.90
18297;DHT22;18066;52.106;5.534;2023-05-10T12:55:01;19.30;99.90
18297;DHT22;18066;52.106;5.534;2023-05-10T12:57:28;19.00;99.90
18297;DHT22;18066;52.106;5.534;2023-05-10T12:59:56;19.10;99.90
18297;DHT22;18066;52.106;5.534;2023-05-10T13:02:22;19.40;99.90
18297;DHT22;18066;52.106;5.534;2023-05-10T13:04:50;19.90;99.90
18297;DHT22;18066;52.106;5.534;2023-05-10T13:07:16;20.00;99.90
18297;DHT22;18066;52.106;5.534;2023-05-10T13:09:43;19.60;99.90
18297;DHT22;18066;52.106;5.534;2023-05-10T13:12:11;19.20;99.90
18297;DHT22;18066;52.106;5.534;2023-05-10T13:14:38;18.90;99.90
18297;DHT22;18066;52.106;5.534;2023-05-10T13:17:06;19.00;99.90
18297;DHT22;18066;52.106;5.534;2023-05-10T13:19:33;19.10;99.90
18297;DHT22;18066;52.106;5.534;2023-05-10T13:22:00;18.80;99.90
18297;DHT22;18066;52.106;5.534;2023-05-10T13:24:26;18.60;99.90
18297;DHT22;18066;52.106;5.534;2023-05-10T13:26:53;18.10;99.90
18297;DHT22;18066;52.106;5.534;2023-05-10T13:29:21;17.80;99.90
18297;DHT22;18066;52.106;5.534;2023-05-10T13:31:48;17.40;99.90
18297;DHT22;18066;52.106;5.534;2023-05-10T13:34:15;17.00;99.90
18297;DHT22;18066;52.106;5.534;2023-05-10T13:36:42;16.40;99.90
18297;DHT22;18066;52.106;5.534;2023-05-10T13:39:09;15.90;99.90
18297;DHT22;18066;52.106;5.534;2023-05-10T13:41:35;15.50;99.90
18297;DHT22;18066;52.106;5.534;2023-05-10T13:44:02;15.30;99.90
18297;DHT22;18066;52.106;5.534;2023-05-10T13:46:30;14.90;99.90
18297;DHT22;18066;52.106;5.534;2023-05-10T13:48:57;14.60;99.90
18297;DHT22;18066;52.106;5.534;2023-05-10T13:51:24;14.50;99.90
18297;DHT22;18066;52.106;5.534;2023-05-10T13:53:51;14.00;99.90
18297;DHT22;18066;52.106;5.534;2023-05-10T13:56:18;13.70;99.90
18297;DHT22;18066;52.106;5.534;2023-05-10T13:58:44;13.50;99.90
18297;DHT22;18066;52.106;5.534;2023-05-10T14:01:11;13.40;99.90
18297;DHT22;18066;52.106;5.534;2023-05-10T14:03:40;13.30;99.90
18297;DHT22;18066;52.106;5.534;2023-05-10T14:06:07;13.30;99.90
18297;DHT22;18066;52.106;5.534;2023-05-10T14:08:35;13.20;99.90
18297;DHT22;18066;52.106;5.534;2023-05-10T14:11:02;13.20;99.90
18297;DHT22;18066;52.106;5.534;2023-05-10T14:13:28;13.20;99.90
18297;DHT22;18066;52.106;5.534;2023-05-10T14:15:55;13.10;99.90
18297;DHT22;18066;52.106;5.534;2023-05-10T14:18:22;13.20;99.90
18297;DHT22;18066;52.106;5.534;2023-05-10T14:20:50;13.20;99.90
18297;DHT22;18066;52.106;5.534;2023-05-10T14:23:17;13.20;99.90
18297;DHT22;18066;52.106;5.534;2023-05-10T14:25:45;13.20;99.90
18297;DHT22;18066;52.106;5.534;2023-05-10T14:28:12;13.20;99.90
18297;DHT22;18066;52.106;5.534;2023-05-10T14:30:38;13.20;99.90
18297;DHT22;18066;52.106;5.534;2023-05-10T14:33:05;13.30;99.90
18297;DHT22;18066;52.106;5.534;2023-05-10T14:35:33;13.20;99.90
18297;DHT22;18066;52.106;5.534;2023-05-10T14:38:02;13.30;99.90
18297;DHT22;18066;52.106;5.534;2023-05-10T14:40:28;13.40;99.90
18297;DHT22;18066;52.106;5.534;2023-05-10T14:42:55;13.50;99.90
18297;DHT22;18066;52.106;5.534;2023-05-10T14:45:22;13.50;99.90
18297;DHT22;18066;52.106;5.534;2023-05-10T14:47:49;13.60;99.90
18297;DHT22;18066;52.106;5.534;2023-05-10T14:50:16;13.60;99.90
18297;DHT22;18066;52.106;5.534;2023-05-10T14:52:43;13.60;99.90
18297;DHT22;18066;52.106;5.534;2023-05-10T14:55:11;13.60;99.90
18297;DHT22;18066;52.106;5.534;2023-05-10T14:57:38;13.60;99.90
18297;DHT22;18066;52.106;5.534;2023-05-10T15:00:06;13.60;99.90
18297;DHT22;18066;52.106;5.534;2023-05-10T15:02:33;13.60;99.90
18297;DHT22;18066;52.106;5.534;2023-05-10T15:05:00;13.70;99.90
18297;DHT22;18066;52.106;5.534;2023-05-10T15:07:26;13.70;99.90
18297;DHT22;18066;52.106;5.534;2023-05-10T15:09:53;13.80;99.90
18297;DHT22;18066;52.106;5.534;2023-05-10T15:12:22;13.90;99.90
18297;DHT22;18066;52.106;5.534;2023-05-10T15:14:48;13.90;99.90
18297;DHT22;18066;52.106;5.534;2023-05-10T15:17:15;14.00;99.90
18297;DHT22;18066;52.106;5.534;2023-05-10T15:19:43;14.00;99.90
18297;DHT22;18066;52.106;5.534;2023-05-10T15:22:09;14.10;99.90
18297;DHT22;18066;52.106;5.534;2023-05-10T15:24:36;14.10;99.90
18297;DHT22;18066;52.106;5.534;2023-05-10T15:27:03;14.30;99.90
18297;DHT22;18066;52.106;5.534;2023-05-10T15:29:31;14.40;99.90
18297;DHT22;18066;52.106;5.534;2023-05-10T15:31:59;14.40;99.90
18297;DHT22;18066;52.106;5.534;2023-05-10T15:34:27;14.50;99.90
18297;DHT22;18066;52.106;5.534;2023-05-10T15:36:54;14.50;99.90